sensor_id;sensor_type;location;lat;lon;timestamp;P1;durP1;ratioP1;P2;durP2;ratioP2
63555;SDS011;49700;48.072;7.800;2023-04-25T00:01:53;3.90;;;2.43;;
63555;SDS011;49700;48.072;7.800;2023-04-25T00:04:18;5.60;;;3.00;;
63555;SDS011;49700;48.072;7.800;2023-04-25T00:06:44;3.00;;;2.80;;
63555;SDS011;49700;48.072;7.800;2023-04-25T00:09:09;5.00;;;3.40;;
63555;SDS011;49700;48.072;7.800;2023-04-25T00:11:36;3.78;;;2.60;;
63555;SDS011;49700;48.072;7.800;2023-04-25T00:14:02;7.67;;;3.27;;
63555;SDS011;49700;48.072;7.800;2023-04-25T00:16:28;4.50;;;2.65;;
63555;SDS011;49700;48.072;7.800;2023-04-25T00:18:55;4.13;;;2.30;;
63555;SDS011;49700;48.072;7.800;2023-04-25T00:21:21;3.97;;;2.40;;
63555;SDS011;49700;48.072;7.800;2023-04-25T00:23:49;3.13;;;2.83;;
63555;SDS011;49700;48.072;7.800;2023-04-25T00:26:15;4.77;;;2.80;;
63555;SDS011;49700;48.072;7.800;2023-04-25T00:28:40;2.63;;;2.00;;
63555;SDS011;49700;48.072;7.800;2023-04-25T00:31:06;6.97;;;2.37;;
63555;SDS011;49700;48.072;7.800;2023-04-25T00:33:31;5.07;;;2.60;;
63555;SDS011;49700;48.072;7.800;2023-04-25T00:35:57;6.50;;;2.93;;
63555;SDS011;49700;48.072;7.800;2023-04-25T00:38:22;4.33;;;2.93;;
63555;SDS011;49700;48.072;7.800;2023-04-25T00:40:48;2.47;;;2.28;;
63555;SDS011;49700;48.072;7.800;2023-04-25T00:43:14;3.23;;;2.93;;
63555;SDS011;49700;48.072;7.800;2023-04-25T00:45:39;2.27;;;2.07;;
63555;SDS011;49700;48.072;7.800;2023-04-25T00:48:05;2.90;;;2.30;;
63555;SDS011;49700;48.072;7.800;2023-04-25T00:50:32;5.43;;;2.60;;
63555;SDS011;49700;48.072;7.800;2023-04-25T00:52:59;4.18;;;2.53;;
63555;SDS011;49700;48.072;7.800;2023-04-25T00:55:25;3.28;;;2.83;;
63555;SDS011;49700;48.072;7.800;2023-04-25T00:57:51;2.87;;;2.10;;
63555;SDS011;49700;48.072;7.800;2023-04-25T01:00:16;2.87;;;2.63;;
63555;SDS011;49700;48.072;7.800;2023-04-25T01:02:43;2.60;;;2.25;;
63555;SDS011;49700;48.072;7.800;2023-04-25T01:05:09;3.92;;;2.90;;
63555;SDS011;49700;48.072;7.800;2023-04-25T01:07:35;4.43;;;2.60;;
63555;SDS011;49700;48.072;7.800;2023-04-25T01:10:01;4.67;;;2.20;;
63555;SDS011;49700;48.072;7.800;2023-04-25T01:12:27;7.50;;;3.00;;
63555;SDS011;49700;48.072;7.800;2023-04-25T01:14:52;3.63;;;2.50;;
63555;SDS011;49700;48.072;7.800;2023-04-25T01:17:18;3.23;;;2.50;;
63555;SDS011;49700;48.072;7.800;2023-04-25T01:19:44;3.60;;;2.50;;
63555;SDS011;49700;48.072;7.800;2023-04-25T01:22:11;3.58;;;2.75;;
63555;SDS011;49700;48.072;7.800;2023-04-25T01:24:36;3.70;;;3.00;;
63555;SDS011;49700;48.072;7.800;2023-04-25T01:27:02;3.15;;;2.42;;
63555;SDS011;49700;48.072;7.800;2023-04-25T01:29:28;5.43;;;3.07;;
63555;SDS011;49700;48.072;7.800;2023-04-25T01:31:54;3.83;;;3.15;;
63555;SDS011;49700;48.072;7.800;2023-04-25T01:34:20;2.60;;;2.40;;
63555;SDS011;49700;48.072;7.800;2023-04-25T01:36:49;6.10;;;3.30;;
63555;SDS011;49700;48.072;7.800;2023-04-25T01:39:16;3.22;;;2.92;;
63555;SDS011;49700;48.072;7.800;2023-04-25T01:41:43;5.45;;;2.97;;
63555;SDS011;49700;48.072;7.800;2023-04-25T01:44:09;5.22;;;3.30;;
63555;SDS011;49700;48.072;7.800;2023-04-25T01:46:35;6.43;;;2.63;;
63555;SDS011;49700;48.072;7.800;2023-04-25T01:49:00;4.50;;;3.40;;
63555;SDS011;49700;48.072;7.800;2023-04-25T01:51:26;7.17;;;5.07;;
63555;SDS011;49700;48.072;7.800;2023-04-25T01:53:52;3.97;;;2.87;;
63555;SDS011;49700;48.072;7.800;2023-04-25T01:56:18;8.60;;;3.10;;
63555;SDS011;49700;48.072;7.800;2023-04-25T01:58:43;5.87;;;3.90;;
63555;SDS011;49700;48.072;7.800;2023-04-25T02:01:18;7.65;;;3.28;;
63555;SDS011;49700;48.072;7.800;2023-04-25T02:03:53;5.93;;;3.20;;
63555;SDS011;49700;48.072;7.800;2023-04-25T02:06:27;3.78;;;3.15;;
63555;SDS011;49700;48.072;7.800;2023-04-25T02:08:55;6.10;;;3.35;;
63555;SDS011;49700;48.072;7.800;2023-04-25T02:11:20;7.70;;;4.10;;
63555;SDS011;49700;48.072;7.800;2023-04-25T02:13:55;4.05;;;3.75;;
63555;SDS011;49700;48.072;7.800;2023-04-25T02:16:36;4.32;;;3.15;;
63555;SDS011;49700;48.072;7.800;2023-04-25T02:19:01;5.47;;;3.13;;
63555;SDS011;49700;48.072;7.800;2023-04-25T02:21:29;5.85;;;3.85;;
63555;SDS011;49700;48.072;7.800;2023-04-25T02:23:55;4.88;;;3.85;;
63555;SDS011;49700;48.072;7.800;2023-04-25T02:26:21;5.82;;;3.50;;
63555;SDS011;49700;48.072;7.800;2023-04-25T02:28:50;5.85;;;3.80;;
63555;SDS011;49700;48.072;7.800;2023-04-25T02:31:18;3.70;;;3.25;;
63555;SDS011;49700;48.072;7.800;2023-04-25T02:33:43;4.47;;;3.60;;
63555;SDS011;49700;48.072;7.800;2023-04-25T02:36:09;7.30;;;3.67;;
63555;SDS011;49700;48.072;7.800;2023-04-25T02:38:34;4.77;;;3.20;;
63555;SDS011;49700;48.072;7.800;2023-04-25T02:41:01;5.15;;;3.47;;
63555;SDS011;49700;48.072;7.800;2023-04-25T02:43:27;5.23;;;3.60;;
63555;SDS011;49700;48.072;7.800;2023-04-25T02:45:52;4.50;;;3.80;;
63555;SDS011;49700;48.072;7.800;2023-04-25T02:48:18;7.70;;;4.10;;
63555;SDS011;49700;48.072;7.800;2023-04-25T02:50:43;5.50;;;4.50;;
63555;SDS011;49700;48.072;7.800;2023-04-25T02:53:08;6.50;;;3.20;;
63555;SDS011;49700;48.072;7.800;2023-04-25T02:55:42;5.80;;;3.05;;
63555;SDS011;49700;48.072;7.800;2023-04-25T02:58:07;3.93;;;3.20;;
63555;SDS011;49700;48.072;7.800;2023-04-25T03:00:40;3.15;;;2.85;;
63555;SDS011;49700;48.072;7.800;2023-04-25T03:03:06;4.03;;;3.50;;
63555;SDS011;49700;48.072;7.800;2023-04-25T03:05:31;3.37;;;2.63;;
63555;SDS011;49700;48.072;7.800;2023-04-25T03:07:57;4.45;;;3.60;;
63555;SDS011;49700;48.072;7.800;2023-04-25T03:10:25;4.18;;;3.10;;
63555;SDS011;49700;48.072;7.800;2023-04-25T03:12:50;5.23;;;3.53;;
63555;SDS011;49700;48.072;7.800;2023-04-25T03:15:16;4.57;;;3.43;;
63555;SDS011;49700;48.072;7.800;2023-04-25T03:17:41;4.00;;;3.30;;
63555;SDS011;49700;48.072;7.800;2023-04-25T03:20:08;7.30;;;3.20;;
63555;SDS011;49700;48.072;7.800;2023-04-25T03:22:34;4.80;;;3.40;;
63555;SDS011;49700;48.072;7.800;2023-04-25T03:24:59;5.90;;;3.67;;
63555;SDS011;49700;48.072;7.800;2023-04-25T03:27:24;4.77;;;3.63;;
63555;SDS011;49700;48.072;7.800;2023-04-25T03:29:50;7.70;;;3.80;;
63555;SDS011;49700;48.072;7.800;2023-04-25T03:32:15;5.77;;;4.07;;
63555;SDS011;49700;48.072;7.800;2023-04-25T03:34:41;5.50;;;3.47;;
63555;SDS011;49700;48.072;7.800;2023-04-25T03:37:06;6.50;;;3.97;;
63555;SDS011;49700;48.072;7.800;2023-04-25T03:39:36;6.47;;;2.90;;
63555;SDS011;49700;48.072;7.800;2023-04-25T03:42:02;9.00;;;4.00;;
63555;SDS011;49700;48.072;7.800;2023-04-25T03:44:28;3.50;;;3.20;;
63555;SDS011;49700;48.072;7.800;2023-04-25T03:46:54;5.40;;;3.93;;
63555;SDS011;49700;48.072;7.800;2023-04-25T03:49:19;4.50;;;3.33;;
63555;SDS011;49700;48.072;7.800;2023-04-25T03:52:00;5.43;;;3.53;;
63555;SDS011;49700;48.072;7.800;2023-04-25T03:54:27;6.20;;;3.45;;
63555;SDS011;49700;48.072;7.800;2023-04-25T03:56:57;6.88;;;3.00;;
63555;SDS011;49700;48.072;7.800;2023-04-25T03:59:25;4.72;;;2.78;;
63555;SDS011;49700;48.072;7.800;2023-04-25T04:01:51;6.40;;;3.13;;
63555;SDS011;49700;48.072;7.800;2023-04-25T04:04:17;4.25;;;3.35;;
63555;SDS011;49700;48.072;7.800;2023-04-25T04:06:43;4.93;;;3.70;;
63555;SDS011;49700;48.072;7.800;2023-04-25T04:09:17;4.03;;;3.67;;
63555;SDS011;49700;48.072;7.800;2023-04-25T04:11:43;6.63;;;3.53;;
63555;SDS011;49700;48.072;7.800;2023-04-25T04:14:08;5.77;;;3.70;;
63555;SDS011;49700;48.072;7.800;2023-04-25T04:16:37;6.75;;;4.63;;
63555;SDS011;49700;48.072;7.800;2023-04-25T04:19:02;6.30;;;4.10;;
63555;SDS011;49700;48.072;7.800;2023-04-25T04:21:28;5.33;;;3.03;;
63555;SDS011;49700;48.072;7.800;2023-04-25T04:23:53;3.63;;;3.10;;
63555;SDS011;49700;48.072;7.800;2023-04-25T04:26:23;9.63;;;3.78;;
63555;SDS011;49700;48.072;7.800;2023-04-25T04:29:00;5.68;;;4.00;;
63555;SDS011;49700;48.072;7.800;2023-04-25T04:31:39;7.20;;;4.38;;
63555;SDS011;49700;48.072;7.800;2023-04-25T04:34:05;6.23;;;4.50;;
63555;SDS011;49700;48.072;7.800;2023-04-25T04:36:32;5.05;;;4.63;;
63555;SDS011;49700;48.072;7.800;2023-04-25T04:38:58;4.20;;;3.90;;
63555;SDS011;49700;48.072;7.800;2023-04-25T04:41:56;6.25;;;3.78;;
63555;SDS011;49700;48.072;7.800;2023-04-25T04:44:44;5.45;;;4.03;;
63555;SDS011;49700;48.072;7.800;2023-04-25T04:47:23;7.05;;;3.53;;
63555;SDS011;49700;48.072;7.800;2023-04-25T04:50:11;3.78;;;3.45;;
63555;SDS011;49700;48.072;7.800;2023-04-25T04:52:56;7.85;;;5.05;;
63555;SDS011;49700;48.072;7.800;2023-04-25T04:55:45;9.45;;;3.10;;
63555;SDS011;49700;48.072;7.800;2023-04-25T04:58:24;5.45;;;3.75;;
63555;SDS011;49700;48.072;7.800;2023-04-25T05:01:18;5.80;;;2.95;;
63555;SDS011;49700;48.072;7.800;2023-04-25T05:03:56;5.85;;;3.50;;
63555;SDS011;49700;48.072;7.800;2023-04-25T05:06:44;6.10;;;3.78;;
63555;SDS011;49700;48.072;7.800;2023-04-25T05:09:28;8.20;;;4.20;;
63555;SDS011;49700;48.072;7.800;2023-04-25T05:12:16;5.60;;;4.25;;
63555;SDS011;49700;48.072;7.800;2023-04-25T05:15:11;5.28;;;3.95;;
63555;SDS011;49700;48.072;7.800;2023-04-25T05:17:51;5.28;;;4.15;;
63555;SDS011;49700;48.072;7.800;2023-04-25T05:20:23;9.07;;;4.55;;
63555;SDS011;49700;48.072;7.800;2023-04-25T05:23:08;7.97;;;4.65;;
63555;SDS011;49700;48.072;7.800;2023-04-25T05:25:53;7.28;;;4.63;;
63555;SDS011;49700;48.072;7.800;2023-04-25T05:28:45;6.18;;;5.57;;
63555;SDS011;49700;48.072;7.800;2023-04-25T05:31:35;4.20;;;3.63;;
63555;SDS011;49700;48.072;7.800;2023-04-25T05:34:06;8.40;;;4.15;;
63555;SDS011;49700;48.072;7.800;2023-04-25T05:36:48;6.82;;;3.92;;
63555;SDS011;49700;48.072;7.800;2023-04-25T05:39:15;7.32;;;3.90;;
63555;SDS011;49700;48.072;7.800;2023-04-25T05:42:00;7.28;;;3.70;;
63555;SDS011;49700;48.072;7.800;2023-04-25T05:44:45;5.63;;;3.67;;
63555;SDS011;49700;48.072;7.800;2023-04-25T05:47:29;4.07;;;3.25;;
63555;SDS011;49700;48.072;7.800;2023-04-25T05:50:01;5.20;;;3.63;;
63555;SDS011;49700;48.072;7.800;2023-04-25T05:52:47;4.03;;;3.25;;
63555;SDS011;49700;48.072;7.800;2023-04-25T05:55:23;5.30;;;3.90;;
63555;SDS011;49700;48.072;7.800;2023-04-25T05:57:49;4.55;;;3.92;;
63555;SDS011;49700;48.072;7.800;2023-04-25T06:00:15;4.80;;;3.10;;
63555;SDS011;49700;48.072;7.800;2023-04-25T06:02:42;4.18;;;2.80;;
63555;SDS011;49700;48.072;7.800;2023-04-25T06:05:09;3.03;;;2.13;;
63555;SDS011;49700;48.072;7.800;2023-04-25T06:07:35;2.70;;;2.50;;
63555;SDS011;49700;48.072;7.800;2023-04-25T06:10:01;5.03;;;3.35;;
63555;SDS011;49700;48.072;7.800;2023-04-25T06:12:28;3.70;;;3.00;;
63555;SDS011;49700;48.072;7.800;2023-04-25T06:14:54;2.80;;;2.23;;
63555;SDS011;49700;48.072;7.800;2023-04-25T06:17:20;8.03;;;4.93;;
63555;SDS011;49700;48.072;7.800;2023-04-25T06:19:54;5.45;;;3.88;;
63555;SDS011;49700;48.072;7.800;2023-04-25T06:22:19;8.07;;;4.80;;
63555;SDS011;49700;48.072;7.800;2023-04-25T06:24:44;6.80;;;3.10;;
63555;SDS011;49700;48.072;7.800;2023-04-25T06:27:10;3.75;;;2.92;;
63555;SDS011;49700;48.072;7.800;2023-04-25T06:29:36;9.87;;;6.17;;
63555;SDS011;49700;48.072;7.800;2023-04-25T06:32:01;1.80;;;1.70;;
63555;SDS011;49700;48.072;7.800;2023-04-25T06:34:28;7.60;;;3.17;;
63555;SDS011;49700;48.072;7.800;2023-04-25T06:36:53;4.00;;;2.23;;
63555;SDS011;49700;48.072;7.800;2023-04-25T06:39:20;3.67;;;2.50;;
63555;SDS011;49700;48.072;7.800;2023-04-25T06:41:48;3.17;;;2.28;;
63555;SDS011;49700;48.072;7.800;2023-04-25T06:44:33;3.40;;;1.95;;
63555;SDS011;49700;48.072;7.800;2023-04-25T06:46:59;3.77;;;2.00;;
63555;SDS011;49700;48.072;7.800;2023-04-25T06:49:24;3.80;;;1.80;;
63555;SDS011;49700;48.072;7.800;2023-04-25T06:51:50;2.03;;;1.83;;
63555;SDS011;49700;48.072;7.800;2023-04-25T06:54:15;1.70;;;1.60;;
63555;SDS011;49700;48.072;7.800;2023-04-25T06:56:51;3.85;;;2.00;;
63555;SDS011;49700;48.072;7.800;2023-04-25T06:59:16;5.73;;;1.80;;
63555;SDS011;49700;48.072;7.800;2023-04-25T07:04:34;3.58;;;2.65;;
63555;SDS011;49700;48.072;7.800;2023-04-25T07:07:00;3.90;;;2.20;;
63555;SDS011;49700;48.072;7.800;2023-04-25T07:09:43;4.45;;;2.63;;
63555;SDS011;49700;48.072;7.800;2023-04-25T07:12:09;5.50;;;2.47;;
63555;SDS011;49700;48.072;7.800;2023-04-25T07:14:35;6.73;;;4.30;;
63555;SDS011;49700;48.072;7.800;2023-04-25T07:17:00;4.63;;;4.10;;
63555;SDS011;49700;48.072;7.800;2023-04-25T07:19:28;5.97;;;4.97;;
63555;SDS011;49700;48.072;7.800;2023-04-25T07:21:56;5.93;;;4.25;;
63555;SDS011;49700;48.072;7.800;2023-04-25T07:24:22;9.17;;;6.40;;
63555;SDS011;49700;48.072;7.800;2023-04-25T07:26:48;7.05;;;5.05;;
63555;SDS011;49700;48.072;7.800;2023-04-25T07:29:36;7.32;;;5.30;;
63555;SDS011;49700;48.072;7.800;2023-04-25T07:32:03;8.05;;;5.35;;
63555;SDS011;49700;48.072;7.800;2023-04-25T07:34:29;5.13;;;4.63;;
63555;SDS011;49700;48.072;7.800;2023-04-25T07:36:55;5.20;;;3.88;;
63555;SDS011;49700;48.072;7.800;2023-04-25T07:39:22;6.53;;;3.05;;
63555;SDS011;49700;48.072;7.800;2023-04-25T07:41:48;10.23;;;4.82;;
63555;SDS011;49700;48.072;7.800;2023-04-25T07:44:19;4.25;;;3.85;;
63555;SDS011;49700;48.072;7.800;2023-04-25T07:46:45;8.37;;;4.97;;
63555;SDS011;49700;48.072;7.800;2023-04-25T07:49:10;3.57;;;3.13;;
63555;SDS011;49700;48.072;7.800;2023-04-25T07:51:35;5.33;;;2.70;;
63555;SDS011;49700;48.072;7.800;2023-04-25T07:54:06;2.50;;;1.90;;
63555;SDS011;49700;48.072;7.800;2023-04-25T07:56:35;2.28;;;2.08;;
63555;SDS011;49700;48.072;7.800;2023-04-25T07:59:00;2.10;;;1.80;;
63555;SDS011;49700;48.072;7.800;2023-04-25T08:01:26;3.33;;;1.97;;
63555;SDS011;49700;48.072;7.800;2023-04-25T08:03:56;5.70;;;2.53;;
63555;SDS011;49700;48.072;7.800;2023-04-25T08:06:33;2.40;;;2.05;;
63555;SDS011;49700;48.072;7.800;2023-04-25T08:09:07;2.38;;;1.80;;
63555;SDS011;49700;48.072;7.800;2023-04-25T08:11:37;2.33;;;2.05;;
63555;SDS011;49700;48.072;7.800;2023-04-25T08:14:03;3.97;;;2.58;;
63555;SDS011;49700;48.072;7.800;2023-04-25T08:16:29;2.07;;;1.70;;
63555;SDS011;49700;48.072;7.800;2023-04-25T08:18:55;2.25;;;1.90;;
63555;SDS011;49700;48.072;7.800;2023-04-25T08:21:21;5.10;;;3.33;;
63555;SDS011;49700;48.072;7.800;2023-04-25T08:23:46;7.13;;;4.23;;
63555;SDS011;49700;48.072;7.800;2023-04-25T08:26:28;3.47;;;2.78;;
63555;SDS011;49700;48.072;7.800;2023-04-25T08:28:54;5.20;;;2.75;;
63555;SDS011;49700;48.072;7.800;2023-04-25T08:31:20;1.98;;;1.65;;
63555;SDS011;49700;48.072;7.800;2023-04-25T08:33:55;2.13;;;1.70;;
63555;SDS011;49700;48.072;7.800;2023-04-25T08:36:26;2.83;;;1.77;;
63555;SDS011;49700;48.072;7.800;2023-04-25T08:38:53;3.20;;;2.03;;
63555;SDS011;49700;48.072;7.800;2023-04-25T08:41:19;2.40;;;2.00;;
63555;SDS011;49700;48.072;7.800;2023-04-25T08:43:47;3.50;;;2.35;;
63555;SDS011;49700;48.072;7.800;2023-04-25T08:46:13;1.80;;;1.70;;
63555;SDS011;49700;48.072;7.800;2023-04-25T08:49:06;3.28;;;1.85;;
63555;SDS011;49700;48.072;7.800;2023-04-25T08:51:33;2.88;;;2.20;;
63555;SDS011;49700;48.072;7.800;2023-04-25T08:54:11;2.70;;;2.05;;
63555;SDS011;49700;48.072;7.800;2023-04-25T08:56:41;4.75;;;3.30;;
63555;SDS011;49700;48.072;7.800;2023-04-25T08:59:09;10.52;;;5.78;;
63555;SDS011;49700;48.072;7.800;2023-04-25T09:01:36;11.95;;;6.13;;
63555;SDS011;49700;48.072;7.800;2023-04-25T09:04:02;14.90;;;8.73;;
63555;SDS011;49700;48.072;7.800;2023-04-25T09:06:30;8.77;;;5.80;;
63555;SDS011;49700;48.072;7.800;2023-04-25T09:09:05;5.93;;;4.90;;
63555;SDS011;49700;48.072;7.800;2023-04-25T09:11:32;11.60;;;5.18;;
63555;SDS011;49700;48.072;7.800;2023-04-25T09:14:10;10.73;;;3.70;;
63555;SDS011;49700;48.072;7.800;2023-04-25T09:19:41;6.60;;;5.88;;
63555;SDS011;49700;48.072;7.800;2023-04-25T09:22:15;8.05;;;5.05;;
63555;SDS011;49700;48.072;7.800;2023-04-25T09:24:44;5.20;;;4.57;;
63555;SDS011;49700;48.072;7.800;2023-04-25T09:27:19;7.97;;;4.00;;
63555;SDS011;49700;48.072;7.800;2023-04-25T09:29:58;5.07;;;4.07;;
63555;SDS011;49700;48.072;7.800;2023-04-25T09:32:27;6.43;;;4.38;;
63555;SDS011;49700;48.072;7.800;2023-04-25T09:34:55;6.90;;;5.40;;
63555;SDS011;49700;48.072;7.800;2023-04-25T09:40:30;6.05;;;4.43;;
63555;SDS011;49700;48.072;7.800;2023-04-25T09:43:08;3.92;;;3.53;;
63555;SDS011;49700;48.072;7.800;2023-04-25T09:45:40;3.60;;;3.10;;
63555;SDS011;49700;48.072;7.800;2023-04-25T09:48:10;2.92;;;2.47;;
63555;SDS011;49700;48.072;7.800;2023-04-25T09:50:41;2.92;;;2.72;;
63555;SDS011;49700;48.072;7.800;2023-04-25T09:53:09;6.80;;;2.38;;
63555;SDS011;49700;48.072;7.800;2023-04-25T09:55:59;4.80;;;2.60;;
63555;SDS011;49700;48.072;7.800;2023-04-25T09:58:25;2.88;;;2.22;;
63555;SDS011;49700;48.072;7.800;2023-04-25T10:00:54;5.55;;;2.35;;
63555;SDS011;49700;48.072;7.800;2023-04-25T10:03:34;2.28;;;2.05;;
63555;SDS011;49700;48.072;7.800;2023-04-25T10:06:23;4.63;;;4.13;;
63555;SDS011;49700;48.072;7.800;2023-04-25T10:08:51;2.95;;;2.05;;
63555;SDS011;49700;48.072;7.800;2023-04-25T10:11:19;2.70;;;2.30;;
63555;SDS011;49700;48.072;7.800;2023-04-25T10:13:48;2.83;;;2.58;;
63555;SDS011;49700;48.072;7.800;2023-04-25T10:16:13;2.50;;;2.20;;
63555;SDS011;49700;48.072;7.800;2023-04-25T10:18:41;2.90;;;2.20;;
63555;SDS011;49700;48.072;7.800;2023-04-25T10:21:06;4.00;;;1.80;;
63555;SDS011;49700;48.072;7.800;2023-04-25T10:23:32;2.33;;;1.67;;
63555;SDS011;49700;48.072;7.800;2023-04-25T10:25:59;13.15;;;8.90;;
63555;SDS011;49700;48.072;7.800;2023-04-25T10:28:25;1.67;;;1.48;;
63555;SDS011;49700;48.072;7.800;2023-04-25T10:31:00;2.33;;;1.30;;
63555;SDS011;49700;48.072;7.800;2023-04-25T10:33:37;1.75;;;1.40;;
63555;SDS011;49700;48.072;7.800;2023-04-25T10:36:09;2.10;;;1.60;;
63555;SDS011;49700;48.072;7.800;2023-04-25T10:38:34;1.65;;;1.52;;
63555;SDS011;49700;48.072;7.800;2023-04-25T10:41:02;1.60;;;1.45;;
63555;SDS011;49700;48.072;7.800;2023-04-25T10:43:45;1.75;;;1.55;;
63555;SDS011;49700;48.072;7.800;2023-04-25T10:46:24;3.00;;;2.00;;
63555;SDS011;49700;48.072;7.800;2023-04-25T10:48:53;1.40;;;1.27;;
63555;SDS011;49700;48.072;7.800;2023-04-25T10:53:56;2.03;;;1.80;;
63555;SDS011;49700;48.072;7.800;2023-04-25T10:56:29;2.58;;;1.55;;
63555;SDS011;49700;48.072;7.800;2023-04-25T10:59:05;2.28;;;1.70;;
63555;SDS011;49700;48.072;7.800;2023-04-25T11:01:47;2.13;;;1.60;;
63555;SDS011;49700;48.072;7.800;2023-04-25T11:04:19;2.38;;;1.80;;
63555;SDS011;49700;48.072;7.800;2023-04-25T11:09:32;2.40;;;2.20;;
63555;SDS011;49700;48.072;7.800;2023-04-25T11:11:59;3.15;;;2.42;;
63555;SDS011;49700;48.072;7.800;2023-04-25T11:14:25;2.40;;;2.00;;
63555;SDS011;49700;48.072;7.800;2023-04-25T11:16:55;2.22;;;2.03;;
63555;SDS011;49700;48.072;7.800;2023-04-25T11:19:21;1.83;;;1.73;;
63555;SDS011;49700;48.072;7.800;2023-04-25T11:21:47;2.10;;;1.90;;
63555;SDS011;49700;48.072;7.800;2023-04-25T11:24:13;2.40;;;1.67;;
63555;SDS011;49700;48.072;7.800;2023-04-25T11:26:41;2.20;;;2.00;;
63555;SDS011;49700;48.072;7.800;2023-04-25T11:29:07;3.33;;;2.90;;
63555;SDS011;49700;48.072;7.800;2023-04-25T11:31:32;3.20;;;1.93;;
63555;SDS011;49700;48.072;7.800;2023-04-25T11:33:58;3.70;;;2.50;;
63555;SDS011;49700;48.072;7.800;2023-04-25T11:36:24;4.03;;;2.50;;
63555;SDS011;49700;48.072;7.800;2023-04-25T11:38:51;2.97;;;2.55;;
63555;SDS011;49700;48.072;7.800;2023-04-25T11:41:17;4.73;;;2.13;;
63555;SDS011;49700;48.072;7.800;2023-04-25T11:43:43;2.30;;;2.10;;
63555;SDS011;49700;48.072;7.800;2023-04-25T11:46:09;6.73;;;3.00;;
63555;SDS011;49700;48.072;7.800;2023-04-25T11:48:41;3.60;;;2.30;;
63555;SDS011;49700;48.072;7.800;2023-04-25T11:51:07;3.08;;;2.10;;
63555;SDS011;49700;48.072;7.800;2023-04-25T11:53:33;3.30;;;3.00;;
63555;SDS011;49700;48.072;7.800;2023-04-25T11:55:59;2.77;;;1.93;;
63555;SDS011;49700;48.072;7.800;2023-04-25T11:58:27;2.47;;;1.70;;
63555;SDS011;49700;48.072;7.800;2023-04-25T12:00:53;1.95;;;1.20;;
63555;SDS011;49700;48.072;7.800;2023-04-25T12:03:19;1.67;;;1.07;;
63555;SDS011;49700;48.072;7.800;2023-04-25T12:05:44;1.60;;;1.10;;
63555;SDS011;49700;48.072;7.800;2023-04-25T12:08:14;1.45;;;1.15;;
63555;SDS011;49700;48.072;7.800;2023-04-25T12:10:43;1.27;;;1.10;;
63555;SDS011;49700;48.072;7.800;2023-04-25T12:13:20;1.30;;;0.98;;
63555;SDS011;49700;48.072;7.800;2023-04-25T12:15:49;1.20;;;1.10;;
63555;SDS011;49700;48.072;7.800;2023-04-25T12:18:14;1.50;;;1.27;;
63555;SDS011;49700;48.072;7.800;2023-04-25T12:20:41;2.70;;;1.10;;
63555;SDS011;49700;48.072;7.800;2023-04-25T12:23:06;1.02;;;0.90;;
63555;SDS011;49700;48.072;7.800;2023-04-25T12:25:42;1.38;;;0.82;;
63555;SDS011;49700;48.072;7.800;2023-04-25T12:33:29;2.22;;;1.20;;
63555;SDS011;49700;48.072;7.800;2023-04-25T12:35:56;1.55;;;1.35;;
63555;SDS011;49700;48.072;7.800;2023-04-25T12:38:31;3.45;;;1.27;;
63555;SDS011;49700;48.072;7.800;2023-04-25T12:41:01;1.92;;;1.33;;
63555;SDS011;49700;48.072;7.800;2023-04-25T12:43:27;2.17;;;1.20;;
63555;SDS011;49700;48.072;7.800;2023-04-25T12:45:53;1.43;;;1.20;;
63555;SDS011;49700;48.072;7.800;2023-04-25T12:48:20;1.55;;;1.45;;
63555;SDS011;49700;48.072;7.800;2023-04-25T12:50:46;2.80;;;1.65;;
63555;SDS011;49700;48.072;7.800;2023-04-25T12:53:19;3.58;;;2.13;;
63555;SDS011;49700;48.072;7.800;2023-04-25T12:55:45;3.15;;;1.98;;
63555;SDS011;49700;48.072;7.800;2023-04-25T12:58:12;1.77;;;1.48;;
63555;SDS011;49700;48.072;7.800;2023-04-25T13:00:38;3.35;;;1.58;;
63555;SDS011;49700;48.072;7.800;2023-04-25T13:03:03;1.37;;;1.20;;
63555;SDS011;49700;48.072;7.800;2023-04-25T13:05:29;2.57;;;1.20;;
63555;SDS011;49700;48.072;7.800;2023-04-25T13:07:55;1.33;;;1.03;;
63555;SDS011;49700;48.072;7.800;2023-04-25T13:10:24;1.50;;;1.17;;
63555;SDS011;49700;48.072;7.800;2023-04-25T13:12:50;1.40;;;1.20;;
63555;SDS011;49700;48.072;7.800;2023-04-25T13:15:15;1.30;;;1.20;;
63555;SDS011;49700;48.072;7.800;2023-04-25T13:17:41;3.47;;;1.40;;
63555;SDS011;49700;48.072;7.800;2023-04-25T13:20:07;1.70;;;1.40;;
63555;SDS011;49700;48.072;7.800;2023-04-25T13:22:35;2.60;;;2.00;;
63555;SDS011;49700;48.072;7.800;2023-04-25T13:25:04;1.60;;;1.50;;
63555;SDS011;49700;48.072;7.800;2023-04-25T13:27:31;1.35;;;1.05;;
63555;SDS011;49700;48.072;7.800;2023-04-25T13:29:59;1.30;;;1.05;;
63555;SDS011;49700;48.072;7.800;2023-04-25T13:32:26;1.30;;;1.20;;
63555;SDS011;49700;48.072;7.800;2023-04-25T13:34:51;1.77;;;0.90;;
63555;SDS011;49700;48.072;7.800;2023-04-25T13:37:18;0.88;;;0.80;;
63555;SDS011;49700;48.072;7.800;2023-04-25T13:39:43;1.00;;;0.90;;
63555;SDS011;49700;48.072;7.800;2023-04-25T13:42:09;0.90;;;0.90;;
63555;SDS011;49700;48.072;7.800;2023-04-25T13:44:34;1.03;;;0.90;;
63555;SDS011;49700;48.072;7.800;2023-04-25T13:46:59;1.10;;;1.00;;
63555;SDS011;49700;48.072;7.800;2023-04-25T13:49:26;1.40;;;1.03;;
63555;SDS011;49700;48.072;7.800;2023-04-25T13:51:51;1.13;;;0.90;;
63555;SDS011;49700;48.072;7.800;2023-04-25T13:54:17;1.47;;;0.93;;
63555;SDS011;49700;48.072;7.800;2023-04-25T13:56:42;1.83;;;1.23;;
63555;SDS011;49700;48.072;7.800;2023-04-25T13:59:07;1.40;;;1.33;;
63555;SDS011;49700;48.072;7.800;2023-04-25T14:01:33;1.63;;;1.00;;
63555;SDS011;49700;48.072;7.800;2023-04-25T14:04:00;1.13;;;1.00;;
63555;SDS011;49700;48.072;7.800;2023-04-25T14:06:29;1.40;;;1.20;;
63555;SDS011;49700;48.072;7.800;2023-04-25T14:08:56;1.80;;;1.27;;
63555;SDS011;49700;48.072;7.800;2023-04-25T14:11:21;1.67;;;1.20;;
63555;SDS011;49700;48.072;7.800;2023-04-25T14:13:47;1.10;;;1.00;;
63555;SDS011;49700;48.072;7.800;2023-04-25T14:16:14;1.30;;;1.10;;
63555;SDS011;49700;48.072;7.800;2023-04-25T14:18:40;1.10;;;0.90;;
63555;SDS011;49700;48.072;7.800;2023-04-25T14:21:05;1.73;;;1.60;;
63555;SDS011;49700;48.072;7.800;2023-04-25T14:23:31;1.42;;;1.30;;
63555;SDS011;49700;48.072;7.800;2023-04-25T14:25:57;2.03;;;1.37;;
63555;SDS011;49700;48.072;7.800;2023-04-25T14:28:22;1.83;;;1.00;;
63555;SDS011;49700;48.072;7.800;2023-04-25T14:30:48;1.87;;;1.00;;
63555;SDS011;49700;48.072;7.800;2023-04-25T14:33:13;2.37;;;1.50;;
63555;SDS011;49700;48.072;7.800;2023-04-25T14:35:39;2.33;;;1.40;;
63555;SDS011;49700;48.072;7.800;2023-04-25T14:38:04;2.40;;;1.20;;
63555;SDS011;49700;48.072;7.800;2023-04-25T14:40:30;1.20;;;1.10;;
63555;SDS011;49700;48.072;7.800;2023-04-25T14:42:55;1.20;;;1.10;;
63555;SDS011;49700;48.072;7.800;2023-04-25T14:45:21;1.80;;;1.20;;
63555;SDS011;49700;48.072;7.800;2023-04-25T14:47:46;1.63;;;1.50;;
63555;SDS011;49700;48.072;7.800;2023-04-25T14:50:12;1.97;;;1.57;;
63555;SDS011;49700;48.072;7.800;2023-04-25T14:52:38;2.97;;;1.73;;
63555;SDS011;49700;48.072;7.800;2023-04-25T14:55:03;1.93;;;1.43;;
63555;SDS011;49700;48.072;7.800;2023-04-25T14:57:33;2.95;;;1.80;;
63555;SDS011;49700;48.072;7.800;2023-04-25T14:59:59;1.90;;;1.65;;
63555;SDS011;49700;48.072;7.800;2023-04-25T15:02:25;2.22;;;1.92;;
63555;SDS011;49700;48.072;7.800;2023-04-25T15:04:51;1.83;;;1.70;;
63555;SDS011;49700;48.072;7.800;2023-04-25T15:07:17;1.73;;;1.40;;
63555;SDS011;49700;48.072;7.800;2023-04-25T15:09:42;1.67;;;1.33;;
63555;SDS011;49700;48.072;7.800;2023-04-25T15:12:08;2.60;;;1.70;;
63555;SDS011;49700;48.072;7.800;2023-04-25T15:14:34;2.67;;;1.90;;
63555;SDS011;49700;48.072;7.800;2023-04-25T15:16:59;1.73;;;1.60;;
63555;SDS011;49700;48.072;7.800;2023-04-25T15:19:25;1.90;;;1.63;;